Mineral Springs, Arkansas
Current Conditions -  °F | °C
As of 3:53 AM on Sunday 23 Nov 2014 (Local Time) from KTXK Reporting Station
Light Rain Light Rain  
Wind Chill: 60°   Ceiling: 600
Heat Index: 60°   Visibility: 8mi
Dew Point: 60°   Wind: 21mph
Humidity: 100%   Direction: 140°SE
Pressure: 29.6"   Gusts: 29mph
Location:  33.88°N, 93.91°W
Report Text: KTXK 230953Z AUTO 14018G25KT 8SM -RA OVC006 16/16 A2960 RMK AO2 RAB0855 SLP019 P0002 T01560156
Loading
Personal Weather Stations






























Interactive Weather Map New forecast layout! Learn more

10-Day Weather Forecast

Advertisements
Track Severe Weather on mobile